Time;durP1;ratioP1;P1;durP2;ratioP2;P2;SDS_P1;SDS_P2;PMS_P1;PMS_P2;Temp;Humidity;BMP_temperature;BMP_pressure;BME280_temperature;BME280_humidity;BME280_pressure;Samples;Min_cycle;Max_cycle;Signal;HPM_P1;HPM_P2
2022/02/05 00:01:51;;;;;;;4.65;1.00;;;5.00;99.90;;;;;;5117034;28;20096;-67
2022/02/05 00:04:18;;;;;;;7.22;1.27;;;4.90;99.90;;;;;;5116851;28;20080;-67
2022/02/05 00:06:47;;;;;;;3.45;0.95;;;4.90;99.90;;;;;;5116418;28;20050;-68
2022/02/05 00:09:31;;;;;;;3.35;1.33;;;4.90;99.90;;;;;;5115461;28;20019;-67
2022/02/05 00:20:21;;;;;;;1.85;0.70;;;4.80;99.90;;;;;;5117657;28;20122;-67
2022/02/05 00:41:29;;;;;;;1.40;0.80;;;4.60;99.90;;;;;;5118100;28;20026;-67
2022/02/05 00:43:58;;;;;;;4.40;0.75;;;4.60;99.90;;;;;;5118447;28;20023;-67
2022/02/05 00:46:27;;;;;;;2.13;0.90;;;4.50;99.90;;;;;;5118850;28;20016;-67
2022/02/05 00:48:53;;;;;;;4.53;1.13;;;4.50;99.90;;;;;;5118040;28;20027;-67
2022/02/05 00:51:28;;;;;;;4.82;2.55;;;4.40;99.90;;;;;;5116328;28;20046;-67
2022/02/05 00:54:03;;;;;;;2.70;0.90;;;4.30;99.90;;;;;;5117949;28;20043;-67
2022/02/05 00:59:10;;;;;;;6.47;1.20;;;4.30;99.90;;;;;;5117161;28;20432;-67
2022/02/05 01:01:36;;;;;;;11.10;4.30;;;4.30;99.90;;;;;;5116727;28;20461;-67
2022/02/05 01:04:02;;;;;;;2.47;1.13;;;4.30;99.90;;;;;;5116716;28;20077;-67
2022/02/05 01:06:28;;;;;;;;;;;4.30;99.90;;;;;;5117933;28;20040;-67
2022/02/05 01:08:53;;;;;;;;;;;4.30;99.90;;;;;;5118071;28;19904;-66
2022/02/05 01:11:19;;;;;;;;;;;4.30;99.90;;;;;;5118519;28;19911;-67
2022/02/05 01:13:44;;;;;;;;;;;4.20;99.90;;;;;;5118024;28;19904;-67
2022/02/05 01:16:22;;;;;;;;;;;4.20;99.90;;;;;;5117557;28;19903;-67
2022/02/05 01:18:48;;;;;;;;;;;4.20;99.90;;;;;;5117418;28;19919;-67
2022/02/05 01:21:30;;;;;;;;;;;4.10;99.90;;;;;;5117053;28;20276;-66
2022/02/05 01:24:01;;;;;;;;;;;4.10;99.90;;;;;;5117208;28;19904;-67
2022/02/05 01:26:33;;;;;;;;;;;4.10;99.90;;;;;;5116425;28;19908;-66
2022/02/05 01:29:04;;;;;;;;;;;4.00;99.90;;;;;;5116161;28;19911;-67
2022/02/05 01:31:37;;;;;;;;;;;4.00;99.90;;;;;;5116609;28;19904;-67
2022/02/05 01:34:53;;;;;;;;;;;4.00;99.90;;;;;;5118184;28;20260;-67
2022/02/05 01:53:27;;;;;;;;;;;3.90;99.90;;;;;;5128549;28;19912;-68
2022/02/05 02:12:00;;;;;;;;;;;3.90;99.90;;;;;;5115201;28;20329;-67
2022/02/05 02:14:49;;;;;;;;;;;3.80;99.90;;;;;;5115250;28;19960;-67
2022/02/05 02:20:06;;;;;;;;;;;3.80;99.90;;;;;;5116030;28;19907;-67
2022/02/05 02:22:44;;;;;;;;;;;3.70;99.90;;;;;;5123004;28;19904;-68
2022/02/05 02:28:26;;;;;;;;;;;3.70;99.90;;;;;;5129649;28;19915;-68
2022/02/05 02:30:51;;;;;;;;;;;3.70;99.90;;;;;;5119039;28;19903;-67
2022/02/05 02:33:25;;;;;;;;;;;3.70;99.90;;;;;;5115205;28;20380;-67
2022/02/05 02:35:51;;;;;;;;;;;3.70;99.90;;;;;;5117548;28;20063;-67
2022/02/05 02:38:22;;;;;;;;;;;3.60;99.90;;;;;;5116848;28;19907;-67
2022/02/05 02:40:59;;;;;;;;;;;3.60;99.90;;;;;;5114543;28;19907;-67
2022/02/05 02:43:28;;;;;;;;;;;3.60;99.90;;;;;;5115097;28;19910;-67
2022/02/05 02:45:54;;;;;;;;;;;3.60;99.90;;;;;;5114929;28;19994;-67
2022/02/05 02:48:19;;;;;;;;;;;3.60;99.90;;;;;;5114989;28;19943;-66
2022/02/05 03:02:08;;;;;;;;;;;3.40;99.90;;;;;;5091216;28;19904;-66
2022/02/05 03:04:34;;;;;;;;;;;3.40;99.90;;;;;;5113243;28;19904;-66
2022/02/05 03:06:59;;;;;;;;;;;3.40;99.90;;;;;;5114444;28;19904;-67
2022/02/05 03:09:25;;;;;;;;;;;3.30;99.90;;;;;;5117302;28;19903;-67
2022/02/05 03:11:51;;;;;;;;;;;3.30;99.90;;;;;;5125111;27;19911;-67
2022/02/05 03:14:16;;;;;;;;;;;3.30;99.90;;;;;;5120098;28;20326;-67
2022/02/05 03:16:48;;;;;;;;;;;3.30;99.90;;;;;;5113357;28;20006;-66
2022/02/05 03:19:15;;;;;;;;;;;3.30;99.90;;;;;;5114916;28;19907;-66
2022/02/05 03:21:42;;;;;;;;;;;3.30;99.90;;;;;;5115644;28;20248;-66
2022/02/05 03:24:07;;;;;;;;;;;3.30;99.90;;;;;;5116921;28;19907;-66
2022/02/05 03:26:35;;;;;;;;;;;3.30;99.90;;;;;;5117120;28;19910;-67
2022/02/05 03:29:01;;;;;;;;;;;3.20;99.90;;;;;;5115552;28;20309;-67
2022/02/05 03:31:26;;;;;;;;;;;3.20;99.90;;;;;;5116189;28;19903;-66
2022/02/05 03:33:52;;;;;;;;;;;3.20;99.90;;;;;;5115373;28;19914;-67
2022/02/05 03:36:17;;;;;;;;;;;3.20;99.90;;;;;;5115304;28;19908;-66
2022/02/05 03:38:43;;;;;;;;;;;3.20;99.90;;;;;;5114575;28;19914;-66
2022/02/05 03:41:08;;;;;;;;;;;3.20;99.90;;;;;;5115074;28;20356;-67
2022/02/05 03:43:34;;;;;;;;;;;3.20;99.90;;;;;;5115182;28;19949;-67
2022/02/05 03:45:59;;;;;;;;;;;3.30;99.90;;;;;;5115530;28;19907;-67
2022/02/05 03:48:25;;;;;;;;;;;3.30;99.90;;;;;;5114330;28;19951;-67
2022/02/05 03:50:51;;;;;;;;;;;3.30;99.90;;;;;;5114010;28;19950;-67
2022/02/05 03:53:17;;;;;;;;;;;3.40;99.90;;;;;;5116335;28;19911;-67
2022/02/05 03:55:45;;;;;;;;;;;3.40;99.90;;;;;;5118233;28;19904;-67
2022/02/05 03:58:11;;;;;;;;;;;3.40;99.90;;;;;;5118148;28;19903;-67
2022/02/05 04:00:37;;;;;;;;;;;3.40;99.90;;;;;;5117935;28;19918;-67
2022/02/05 04:03:02;;;;;;;;;;;3.40;99.90;;;;;;5117703;28;19908;-67
2022/02/05 04:05:28;;;;;;;;;;;3.40;99.90;;;;;;5116468;28;20314;-67
2022/02/05 04:07:55;;;;;;;;;;;3.30;99.90;;;;;;5117531;28;19950;-67
2022/02/05 04:10:27;;;;;;;;;;;3.30;99.90;;;;;;5117862;28;20003;-67
2022/02/05 04:16:37;;;;;;;;;;;3.30;99.90;;;;;;5118324;28;20015;-67
2022/02/05 04:18:32;;;;;;;;;;;3.20;99.90;;;;;;5104024;28;19904;-68
2022/02/05 04:20:57;;;;;;;;;;;3.10;99.90;;;;;;5117939;28;20379;-67
2022/02/05 04:23:23;;;;;;;;;;;3.10;99.90;;;;;;5118040;28;19929;-67
2022/02/05 04:25:49;;;;;;;;;;;3.10;99.90;;;;;;5117428;28;19903;-67
2022/02/05 04:28:14;;;;;;;;;;;3.10;99.90;;;;;;5117180;28;20368;-66
2022/02/05 04:30:39;;;;;;;;;;;3.00;99.90;;;;;;5117280;28;19908;-66
2022/02/05 04:33:05;;;;;;;;;;;3.00;99.90;;;;;;5117111;28;19904;-66
2022/02/05 04:35:31;;;;;;;;;;;3.00;99.90;;;;;;5115891;28;19996;-67
2022/02/05 04:37:59;;;;;;;;;;;3.00;99.90;;;;;;5117458;28;19995;-66
2022/02/05 04:40:31;;;;;;;;;;;3.00;99.90;;;;;;5117476;28;20014;-66
2022/02/05 05:21:36;;;;;;;;;;;3.40;99.90;;;;;;5116741;28;19914;-67
2022/02/05 05:24:03;;;;;;;;;;;3.40;99.90;;;;;;5115679;28;19920;-66
2022/02/05 05:26:29;;;;;;;;;;;3.40;99.90;;;;;;5116330;28;19907;-66
2022/02/05 05:28:54;;;;;;;;;;;3.40;99.90;;;;;;5117499;28;19904;-67
2022/02/05 05:31:19;;;;;;;;;;;3.40;99.90;;;;;;5116661;28;19974;-66
2022/02/05 05:33:45;;;;;;;;;;;3.40;99.90;;;;;;5118033;28;19903;-66
2022/02/05 05:36:10;;;;;;;;;;;3.40;99.90;;;;;;5116337;28;20253;-66
2022/02/05 05:38:36;;;;;;;;;;;3.40;99.90;;;;;;5115935;28;19910;-66
2022/02/05 05:41:02;;;;;;;;;;;3.40;99.90;;;;;;5123045;28;19910;-66
2022/02/05 05:43:58;;;;;;;;;;;3.40;99.90;;;;;;5123674;28;19918;-67
2022/02/05 05:46:30;;;;;;;;;;;3.50;99.90;;;;;;5115800;28;19904;-67
2022/02/05 05:49:09;;;;;;;;;;;3.50;99.90;;;;;;5116129;28;19910;-67
2022/02/05 05:51:34;;;;;;;;;;;3.40;99.90;;;;;;5115051;28;20309;-67
2022/02/05 05:54:00;;;;;;;;;;;3.40;99.90;;;;;;5115230;28;19918;-67
2022/02/05 05:56:25;;;;;;;;;;;3.60;99.90;;;;;;5115388;28;19915;-67
2022/02/05 05:58:51;;;;;;;;;;;3.70;99.90;;;;;;5115620;28;20467;-67
2022/02/05 06:01:16;;;;;;;;;;;3.60;99.90;;;;;;5115248;28;20280;-67
2022/02/05 06:03:42;;;;;;;;;;;3.60;99.90;;;;;;5115254;28;19910;-67
2022/02/05 06:06:07;;;;;;;;;;;3.60;99.90;;;;;;5115540;28;19915;-67
2022/02/05 06:08:33;;;;;;;;;;;3.60;99.90;;;;;;5115096;28;19903;-67
2022/02/05 06:10:58;;;;;;;;;;;3.60;99.90;;;;;;5115143;28;19907;-67
2022/02/05 06:13:24;;;;;;;;;;;3.60;99.90;;;;;;5113979;28;20283;-66
2022/02/05 06:15:52;;;;;;;;;;;3.60;99.90;;;;;;5115196;28;20283;-67
2022/02/05 06:18:18;;;;;;;;;;;3.70;99.90;;;;;;5115205;28;19907;-67
2022/02/05 06:20:43;;;;;;;;;;;3.80;99.90;;;;;;5115123;28;19915;-67
2022/02/05 06:23:09;;;;;;;;;;;3.80;99.90;;;;;;5115732;28;20236;-68
2022/02/05 06:25:35;;;;;;;;;;;3.80;99.90;;;;;;5115402;28;19907;-67
2022/02/05 06:28:01;;;;;;;;;;;3.70;99.90;;;;;;5115224;28;19910;-67
2022/02/05 06:30:26;;;;;;;;;;;3.70;99.90;;;;;;5119942;28;19963;-66
2022/02/05 06:32:52;;;;;;;;;;;3.70;99.90;;;;;;5120262;28;19910;-66
2022/02/05 06:35:17;;;;;;;;;;;3.70;99.90;;;;;;5119615;28;19985;-67
2022/02/05 06:37:43;;;;;;;;;;;3.60;99.90;;;;;;5117855;28;19911;-67
2022/02/05 06:40:09;;;;;;;;;;;3.60;99.90;;;;;;5115324;28;20248;-67
2022/02/05 06:42:35;;;;;;;;;;;3.60;99.90;;;;;;5115393;28;19957;-67
2022/02/05 06:45:00;;;;;;;;;;;3.60;99.90;;;;;;5115014;28;19904;-67
2022/02/05 06:47:26;;;;;;;;;;;3.50;99.90;;;;;;5113657;28;20261;-67
2022/02/05 06:49:52;;;;;;;;;;;3.50;99.90;;;;;;5114696;28;19904;-66
2022/02/05 06:52:17;;;;;;;;;;;3.50;99.90;;;;;;5114236;28;19957;-66
2022/02/05 06:54:43;;;;;;;;;;;3.50;99.90;;;;;;5114341;28;19908;-66
2022/02/05 06:57:08;;;;;;;;;;;3.40;99.90;;;;;;5115065;28;20320;-67
2022/02/05 06:59:34;;;;;;;;;;;3.40;99.90;;;;;;5114363;28;19907;-67
2022/02/05 07:01:59;;;;;;;;;;;3.40;99.90;;;;;;5113019;28;19948;-67
2022/02/05 07:04:26;;;;;;;;;;;3.50;99.90;;;;;;5114102;28;19904;-67
2022/02/05 07:06:54;;;;;;;;;;;3.50;99.90;;;;;;5114094;28;19910;-69
2022/02/05 07:09:22;;;;;;;;;;;3.50;99.90;;;;;;5115825;28;19907;-65
2022/02/05 07:11:48;;;;;;;;;;;3.50;99.90;;;;;;5118880;28;20392;-66
2022/02/05 07:14:16;;;;;;;;;;;3.40;99.90;;;;;;5116619;28;19910;-65
2022/02/05 07:16:50;;;;;;;;;;;3.40;99.90;;;;;;5114828;28;19918;-65
2022/02/05 07:19:27;;;;;;;;;;;3.40;99.90;;;;;;5114144;28;19907;-65
2022/02/05 07:21:54;;;;;;;;;;;3.40;99.90;;;;;;5115594;28;20279;-66
2022/02/05 07:30:02;;;;;;;;;;;3.50;99.90;;;;;;5121859;28;19910;-64
2022/02/05 07:32:27;;;;;;;;;;;3.50;99.90;;;;;;5121036;27;19908;-66
2022/02/05 07:34:53;;;;;;;;;;;3.60;99.90;;;;;;5120937;28;19993;-65
2022/02/05 07:37:18;;;;;;;;;;;3.70;99.90;;;;;;5121255;28;19903;-66
2022/02/05 07:39:48;;;;;;;;;;;3.60;99.90;;;;;;5120876;28;20390;-66
2022/02/05 07:42:15;;;;;;;;;;;3.80;99.90;;;;;;5120179;28;19903;-65
2022/02/05 07:44:40;;;;;;;;;;;3.90;99.90;;;;;;5121467;27;20348;-66
2022/02/05 07:47:09;;;;;;;;;;;3.90;99.90;;;;;;5121547;27;19904;-69
2022/02/05 07:49:41;;;;;;;;;;;3.90;99.90;;;;;;5119604;28;20311;-69
2022/02/05 07:52:08;;;;;;;;;;;4.00;99.90;;;;;;5120783;27;19904;-65
2022/02/05 07:54:33;;;;;;;;;;;4.00;99.90;;;;;;5120876;27;19911;-67
2022/02/05 07:56:59;;;;;;;;;;;4.00;99.90;;;;;;5121491;28;19910;-67
2022/02/05 07:59:24;;;;;;;;;;;4.10;99.90;;;;;;5122013;27;19909;-66
2022/02/05 08:01:50;;;;;;;;;;;4.10;99.90;;;;;;5120791;28;19912;-66
2022/02/05 08:04:18;;;;;;;;;;;4.10;99.90;;;;;;5120825;28;19913;-66
2022/02/05 08:06:45;;;;;;;;;;;4.20;99.90;;;;;;5119806;28;20360;-67
2022/02/05 08:09:17;;;;;;;;;;;4.20;99.90;;;;;;5119231;28;19904;-66
2022/02/05 08:11:52;;;;;;;;;;;4.30;99.90;;;;;;5120604;27;19903;-66
2022/02/05 08:14:21;;;;;;;;;;;4.20;99.90;;;;;;5120527;27;19915;-66
2022/02/05 08:17:06;;;;;;;;;;;4.30;99.90;;;;;;5120592;27;19914;-66
2022/02/05 08:19:35;;;;;;;;;;;4.20;99.90;;;;;;5120728;27;19927;-67
2022/02/05 08:22:01;;;;;;;;;;;4.20;99.90;;;;;;5121206;27;19914;-66
2022/02/05 08:24:32;;;;;;;;;;;4.20;99.90;;;;;;5120602;27;20344;-67
2022/02/05 08:26:58;;;;;;;;;;;4.20;99.90;;;;;;5120460;27;20398;-65
2022/02/05 08:29:33;;;;;;;;;;;4.30;99.90;;;;;;5120827;28;19903;-66
2022/02/05 08:31:59;;;;;;;;;;;4.40;99.90;;;;;;5121153;27;19904;-67
2022/02/05 08:34:25;;;;;;;;;;;4.30;99.90;;;;;;5120563;27;19903;-66
2022/02/05 08:36:51;;;;;;;;;;;4.40;99.90;;;;;;5119107;27;19904;-67
2022/02/05 08:39:18;;;;;;;;;;;4.40;99.90;;;;;;5117019;28;20320;-66
2022/02/05 08:41:44;;;;;;;;;;;4.50;99.90;;;;;;5116798;28;19915;-67
2022/02/05 08:44:10;;;;;;;;;;;4.50;99.90;;;;;;5117486;28;20343;-66
2022/02/05 08:46:36;;;;;;;;;;;4.60;99.90;;;;;;5117073;28;20034;-66
2022/02/05 08:49:05;;;;;;;;;;;4.60;99.90;;;;;;5117281;28;19912;-64
2022/02/05 08:51:36;;;;;;;;;;;4.70;99.90;;;;;;5117080;28;19904;-66
2022/02/05 08:54:05;;;;;;;;;;;4.80;99.90;;;;;;5117059;28;19911;-66
2022/02/05 08:56:31;;;;;;;;;;;4.90;99.90;;;;;;5117200;27;19908;-66
2022/02/05 08:59:07;;;;;;;;;;;4.80;99.90;;;;;;5116981;28;20257;-66
2022/02/05 09:01:48;;;;;;;;;;;4.80;99.90;;;;;;5116049;28;19911;-66
2022/02/05 09:04:54;;;;;;;;;;;4.90;99.90;;;;;;5118020;28;19904;-66
2022/02/05 09:07:06;;;;;;;;;;;4.80;99.90;;;;;;5114880;28;19907;-65
2022/02/05 09:12:56;;;;;;;;;;;5.00;99.90;;;;;;5098736;28;20379;-66
2022/02/05 09:15:15;;;;;;;;;;;5.10;99.90;;;;;;5116643;28;20303;-66
2022/02/05 09:17:44;;;;;;;;;;;5.10;99.90;;;;;;5117056;28;19964;-65
2022/02/05 09:20:12;;;;;;;;;;;5.10;99.90;;;;;;5116598;28;19915;-65
2022/02/05 09:22:38;;;;;;;;;;;5.10;99.90;;;;;;5116202;28;19908;-65
2022/02/05 09:25:04;;;;;;;;;;;5.10;99.90;;;;;;5116416;28;19912;-65
2022/02/05 09:27:40;;;;;;;;;;;5.10;99.90;;;;;;5117073;28;19904;-65
2022/02/05 09:30:12;;;;;;;;;;;5.10;99.90;;;;;;5116236;28;19904;-65
2022/02/05 09:32:38;;;;;;;;;;;5.30;99.90;;;;;;5116222;28;19908;-65
2022/02/05 09:35:07;;;;;;;;;;;5.30;99.90;;;;;;5116207;28;19910;-66
2022/02/05 09:37:33;;;;;;;;;;;5.50;99.90;;;;;;5114384;28;19903;-65
2022/02/05 09:40:03;;;;;;;;;;;5.50;99.90;;;;;;5115699;28;19930;-65
2022/02/05 09:42:34;;;;;;;;;;;5.60;99.90;;;;;;5115941;28;19908;-66
2022/02/05 09:45:01;;;;;;;;;;;5.70;99.90;;;;;;5115917;28;19900;-66
2022/02/05 09:47:27;;;;;;;;;;;5.90;99.90;;;;;;5114376;28;19911;-66
2022/02/05 09:49:56;;;;;;;;;;;6.40;99.90;;;;;;5115510;28;19903;-66
2022/02/05 09:52:26;;;;;;;;;;;7.00;99.90;;;;;;5115472;28;19903;-66
2022/02/05 09:54:55;;;;;;;;;;;7.70;99.90;;;;;;5114533;28;20060;-66
2022/02/05 09:57:21;;;;;;;;;;;8.20;99.90;;;;;;5121438;28;19969;-66
2022/02/05 09:59:54;;;;;;;;;;;8.40;99.90;;;;;;5115426;28;20249;-66
2022/02/05 10:02:30;;;;;;;;;;;8.90;99.90;;;;;;5115720;28;19911;-68
2022/02/05 10:04:57;;;;;;;;;;;9.50;99.90;;;;;;5113784;28;20321;-65
2022/02/05 10:07:24;;;;;;;;;;;9.70;99.90;;;;;;5113730;28;20282;-65
2022/02/05 10:10:01;;;;;;;;;;;9.50;99.90;;;;;;5115008;28;19953;-65
2022/02/05 10:12:26;;;;;;;;;;;9.70;99.90;;;;;;5115394;28;19926;-65
2022/02/05 10:14:55;;;;;;;;;;;10.10;99.90;;;;;;5113370;28;20352;-66
2022/02/05 10:17:21;;;;;;;;;;;10.50;98.80;;;;;;5114879;28;19904;-66
2022/02/05 10:19:50;;;;;;;;;;;10.60;98.80;;;;;;5114160;28;20295;-66
2022/02/05 10:22:17;;;;;;;;;;;11.10;97.80;;;;;;5114806;28;19958;-66
2022/02/05 10:24:53;;;;;;;;;;;11.00;97.40;;;;;;5114521;28;19926;-66
2022/02/05 10:27:25;;;;;;;;;;;10.30;98.20;;;;;;5114400;28;20339;-66
2022/02/05 10:30:03;;;;;;;;;;;9.30;99.90;;;;;;5114824;28;19962;-66
2022/02/05 10:32:28;;;;;;;;;;;9.10;99.90;;;;;;5114456;28;20002;-65
2022/02/05 10:35:02;;;;;;;;;;;8.90;99.90;;;;;;5113224;28;19984;-65
2022/02/05 10:37:32;;;;;;;;;;;8.90;99.90;;;;;;5114977;28;20002;-69
2022/02/05 10:40:07;;;;;;;;;;;9.00;99.90;;;;;;5113262;28;19913;-70
2022/02/05 10:45:18;;;;;;;;;;;9.60;99.90;;;;;;5114661;28;19953;-66
2022/02/05 10:47:49;;;;;;;;;;;9.60;99.90;;;;;;5114619;28;20276;-66
2022/02/05 10:50:19;;;;;;;;;;;9.60;99.90;;;;;;5114444;28;19904;-66
2022/02/05 10:52:49;;;;;;;;;;;10.40;99.90;;;;;;5114199;28;20354;-65
2022/02/05 10:55:28;;;;;;;;;;;11.30;98.20;;;;;;5114641;28;19906;-65
2022/02/05 11:05:43;;;;;;;;;;;14.40;91.50;;;;;;5114303;28;19911;-65
2022/02/05 11:08:09;;;;;;;;;;;14.00;89.90;;;;;;5114585;28;19912;-66
2022/02/05 11:18:58;;;;;;;;;;;12.00;93.60;;;;;;5114379;28;20002;-66
2022/02/05 11:21:25;;;;;;;;;;;11.00;94.90;;;;;;5112669;28;19904;-66
2022/02/05 11:23:55;;;;;;;;;;;10.40;97.70;;;;;;5113891;28;20409;-66
2022/02/05 11:26:21;;;;;;;;;;;10.00;98.50;;;;;;5114044;28;19948;-66
2022/02/05 11:28:51;;;;;;;;;;;9.60;99.60;;;;;;5113942;28;19911;-66
2022/02/05 11:31:29;;;;;;;;;;;9.10;99.90;;;;;;5113808;28;20249;-66
2022/02/05 11:34:13;;;;;;;;;;;8.70;99.90;;;;;;5114078;28;20401;-66
2022/02/05 11:36:39;;;;;;;;;;;8.50;99.90;;;;;;5114222;28;20016;-69
2022/02/05 11:39:05;;;;;;;;;;;8.40;99.90;;;;;;5112812;28;20307;-66
2022/02/05 11:41:31;;;;;;;;;;;8.30;99.90;;;;;;5118483;28;19904;-67
2022/02/05 11:44:12;;;;;;;;;;;8.20;99.90;;;;;;5114840;28;19904;-65
2022/02/05 11:46:37;;;;;;;;;;;8.20;99.90;;;;;;5114196;28;19941;-66
2022/02/05 11:49:05;;;;;;;;;;;8.20;99.90;;;;;;5113585;28;19903;-65
2022/02/05 11:51:32;;;;;;;;;;;8.20;99.90;;;;;;5114623;28;19911;-66
2022/02/05 11:53:57;;;;;;;;;;;8.10;99.90;;;;;;5113562;28;19964;-67
2022/02/05 11:56:47;;;;;;;;;;;8.10;99.90;;;;;;5113991;28;20314;-66
2022/02/05 11:59:13;;;;;;;;;;;8.10;99.90;;;;;;5120590;28;19908;-66
2022/02/05 12:01:39;;;;;;;;;;;8.10;99.90;;;;;;5116013;28;19918;-65
2022/02/05 12:04:09;;;;;;;;;;;8.10;99.90;;;;;;5114100;28;20379;-66
2022/02/05 12:06:44;;;;;;;;;;;8.10;99.90;;;;;;5113612;28;19926;-66
2022/02/05 12:09:36;;;;;;;;;;;8.20;99.90;;;;;;5112443;28;19969;-66
2022/02/05 12:12:20;;;;;;;;;;;8.30;99.90;;;;;;5110876;28;20360;-67
2022/02/05 12:15:06;;;;;;;;;;;8.30;99.90;;;;;;5118334;28;20287;-66
2022/02/05 12:17:59;;;;;;;;;;;8.30;99.90;;;;;;5104350;28;19904;-66
2022/02/05 12:20:29;;;;;;;;;;;8.40;99.90;;;;;;5109766;28;20373;-66
2022/02/05 12:22:55;;;;;;;;;;;8.40;99.90;;;;;;5116663;28;19973;-67
2022/02/05 12:25:22;;;;;;;;;;;8.50;99.90;;;;;;5117622;28;20379;-67
2022/02/05 12:27:47;;;;;;;;;;;8.50;99.90;;;;;;5115939;28;19914;-67
2022/02/05 12:30:38;;;;;;;;;;;8.50;99.90;;;;;;5117509;28;19903;-67
2022/02/05 12:33:04;;;;;;;;;;;8.60;99.90;;;;;;5117459;28;19908;-67
2022/02/05 12:35:30;;;;;;;;;;;8.60;99.90;;;;;;5117296;28;19919;-67
2022/02/05 12:37:59;;;;;;;;;;;8.60;99.90;;;;;;5117634;27;19911;-67
2022/02/05 12:40:25;;;;;;;;;;;8.50;99.90;;;;;;5117199;28;20357;-67
2022/02/05 12:42:54;;;;;;;;;;;8.60;99.90;;;;;;5116659;28;19911;-67
2022/02/05 12:45:25;;;;;;;;;;;8.60;99.90;;;;;;5116902;28;19904;-67
2022/02/05 12:47:50;;;;;;;;;;;8.60;99.90;;;;;;5117411;28;19907;-67
2022/02/05 12:50:16;;;;;;;;;;;8.70;99.90;;;;;;5117209;28;20414;-67
2022/02/05 12:52:47;;;;;;;;;;;8.70;99.90;;;;;;5116453;28;20245;-67
2022/02/05 12:55:19;;;;;;;;;;;8.70;99.90;;;;;;5117214;28;19907;-67
2022/02/05 12:57:47;;;;;;;;;;;8.70;99.90;;;;;;5116813;28;19935;-66
2022/02/05 13:00:17;;;;;;;;;;;8.70;99.90;;;;;;5117245;28;19953;-67
2022/02/05 13:02:42;;;;;;;;;;;8.80;99.90;;;;;;5116657;28;19968;-67
2022/02/05 13:05:08;;;;;;;;;;;8.80;99.90;;;;;;5115461;28;20420;-67
2022/02/05 13:07:39;;;;;;;;;;;8.80;99.90;;;;;;5116785;28;19904;-67
2022/02/05 13:10:06;;;;;;;;;;;9.00;99.90;;;;;;5116621;28;19926;-68
2022/02/05 13:12:36;;;;;;;;;;;8.90;99.90;;;;;;5115158;28;20360;-69
2022/02/05 13:15:06;;;;;;;;;;;8.90;99.90;;;;;;5116525;28;19923;-67
2022/02/05 13:36:06;;;;;;;;;;;8.70;99.90;;;;;;5116729;28;19911;-67
2022/02/05 13:39:01;;;;;;;;;;;8.60;99.90;;;;;;5115054;28;19961;-68
2022/02/05 13:41:26;;;;;;;;;;;8.50;99.90;;;;;;5115805;28;19911;-67
2022/02/05 13:43:55;;;;;;;;;;;8.50;99.90;;;;;;5115986;28;20425;-68
2022/02/05 13:46:21;;;;;;;;;;;8.40;99.90;;;;;;5116355;28;19910;-68
2022/02/05 13:48:47;;;;;;;;;;;8.40;99.90;;;;;;5114798;28;19903;-69
2022/02/05 13:51:13;;;;;;;;;;;8.30;99.90;;;;;;5116056;28;19904;-68
2022/02/05 13:53:57;;;;;;;;;;;8.30;99.90;;;;;;5114310;28;19916;-68
2022/02/05 13:56:23;;;;;;;;;;;8.30;99.90;;;;;;5115922;28;19966;-68
2022/02/05 13:58:49;;;;;;;;;;;8.30;99.90;;;;;;5114358;28;19908;-68
2022/02/05 14:01:28;;;;;;;;;;;8.30;99.90;;;;;;5114696;28;19904;-67
2022/02/05 14:03:53;;;;;;;;;;;8.30;99.90;;;;;;5116035;27;19904;-68
2022/02/05 14:06:19;;;;;;;;;;;8.30;99.90;;;;;;5118220;28;19999;-67
2022/02/05 14:08:49;;;;;;;;;;;8.20;99.90;;;;;;5115588;28;19951;-67
2022/02/05 14:11:15;;;;;;;;;;;8.30;99.90;;;;;;5117278;28;20364;-68
2022/02/05 14:13:41;;;;;;;;;;;8.30;99.90;;;;;;5117077;28;19904;-68
2022/02/05 14:16:08;;;;;;;;;;;8.40;99.90;;;;;;5121286;28;19952;-70
2022/02/05 14:19:05;;;;;;;;;;;8.40;99.90;;;;;;5118906;28;20253;-68
2022/02/05 14:21:34;;;;;;;;;;;8.40;99.90;;;;;;5098480;28;20280;-68
2022/02/05 14:24:00;;;;;;;;;;;8.30;99.90;;;;;;5114918;28;19903;-70
2022/02/05 14:26:32;;;;;;;;;;;8.30;99.90;;;;;;5117564;28;20277;-69
2022/02/05 14:29:01;;;;;;;;;;;8.30;99.90;;;;;;5115618;28;20334;-69
2022/02/05 14:41:53;;;;;;;;;;;8.10;99.90;;;;;;5115785;28;19911;-68
2022/02/05 14:44:19;;;;;;;;;;;8.10;99.90;;;;;;5114698;28;20324;-69
2022/02/05 14:46:44;;;;;;;;;;;8.10;99.90;;;;;;5116965;28;19953;-68
2022/02/05 14:49:10;;;;;;;;;;;8.10;99.90;;;;;;5116637;28;19911;-68
2022/02/05 14:51:35;;;;;;;;;;;8.10;99.90;;;;;;5115261;28;19907;-68
2022/02/05 14:54:01;;;;;;;;;;;8.10;99.90;;;;;;5114663;28;20024;-68
2022/02/05 14:56:27;;;;;;;;;;;8.20;99.90;;;;;;5114439;28;19908;-68
2022/02/05 14:58:52;;;;;;;;;;;8.20;99.90;;;;;;5114442;28;19946;-68
2022/02/05 15:01:21;;;;;;;;;;;8.20;99.90;;;;;;5113536;28;19907;-70
2022/02/05 15:03:47;;;;;;;;;;;8.20;99.90;;;;;;5114346;28;19965;-70
2022/02/05 15:06:18;;;;;;;;;;;8.20;99.90;;;;;;5114517;28;20314;-70
2022/02/05 15:08:48;;;;;;;;;;;8.20;99.90;;;;;;5113458;28;19908;-68
2022/02/05 15:11:14;;;;;;;;;;;8.20;99.90;;;;;;5114415;28;20291;-67
2022/02/05 15:13:40;;;;;;;;;;;8.20;99.90;;;;;;5112820;28;19904;-66
2022/02/05 15:16:05;;;;;;;;;;;8.30;99.90;;;;;;5114483;28;20413;-66
2022/02/05 15:18:31;;;;;;;;;;;8.30;99.90;;;;;;5114567;28;19910;-65
2022/02/05 15:20:57;;;;;;;;;;;8.30;99.90;;;;;;5113837;28;19908;-66
2022/02/05 15:23:23;;;;;;;;;;;8.30;99.90;;;;;;5113686;28;20280;-65
2022/02/05 15:25:49;;;;;;;;;;;8.30;99.90;;;;;;5112668;28;20360;-66
2022/02/05 15:28:15;;;;;;;;;;;8.30;99.90;;;;;;5112950;28;20320;-67
2022/02/05 15:30:40;;;;;;;;;;;8.30;99.90;;;;;;5114270;28;19904;-66
2022/02/05 15:33:06;;;;;;;;;;;8.30;99.90;;;;;;5114304;28;19903;-67
2022/02/05 15:35:32;;;;;;;;;;;8.30;99.90;;;;;;5114335;28;19994;-66
2022/02/05 15:38:06;;;;;;;;;;;8.30;99.90;;;;;;5114215;28;19907;-67
2022/02/05 15:43:41;;;;;;;;;;;8.20;99.90;;;;;;5094226;28;20401;-67
2022/02/05 15:46:07;;;;;;;;;;;8.20;99.90;;;;;;5113845;28;19946;-67
2022/02/05 15:48:33;;;;;;;;;;;8.10;99.90;;;;;;5118207;28;19903;-66
2022/02/05 15:51:00;;;;;;;;;;;8.10;99.90;;;;;;5118174;28;19910;-65
2022/02/05 15:53:25;;;;;;;;;;;8.20;99.90;;;;;;5117964;28;19995;-66
2022/02/05 15:55:51;;;;;;;;;;;8.10;99.90;;;;;;5117168;28;19947;-68
2022/02/05 15:58:22;;;;;;;;;;;8.10;99.90;;;;;;5118662;28;19926;-69
2022/02/05 16:00:48;;;;;;;;;;;8.10;99.90;;;;;;5117855;28;19911;-68
2022/02/05 16:03:14;;;;;;;;;;;8.10;99.90;;;;;;5116647;28;19952;-66
2022/02/05 16:05:41;;;;;;;;;;;8.00;99.90;;;;;;5116397;28;19942;-68
2022/02/05 16:08:06;;;;;;;;;;;8.00;99.90;;;;;;5121877;28;20356;-69
2022/02/05 16:10:32;;;;;;;;;;;7.90;99.90;;;;;;5119352;28;19904;-66
2022/02/05 16:12:57;;;;;;;;;;;7.90;99.90;;;;;;5117860;28;20411;-68
2022/02/05 16:15:23;;;;;;;;;;;7.90;99.90;;;;;;5118255;28;19969;-69
2022/02/05 16:17:49;;;;;;;;;;;7.80;99.90;;;;;;5118031;28;19904;-67
2022/02/05 16:20:15;;;;;;;;;;;7.80;99.90;;;;;;5117814;28;20002;-67
2022/02/05 16:22:40;;;;;;;;;;;7.70;99.90;;;;;;5116266;28;19903;-67
2022/02/05 16:25:11;;;;;;;;;;;7.60;99.90;;;;;;5118193;28;19899;-67
2022/02/05 16:27:37;;;;;;;;;;;7.50;99.90;;;;;;5117406;28;20286;-67
2022/02/05 16:30:07;;;;;;;;;;;7.40;99.90;;;;;;5116796;28;19956;-67
2022/02/05 16:32:33;;;;;;;;;;;7.40;99.90;;;;;;5117782;27;19990;-67
2022/02/05 16:35:02;;;;;;;;;;;7.40;99.90;;;;;;5117499;27;20047;-67
2022/02/05 16:37:29;;;;;;;;;;;7.40;99.90;;;;;;5117638;28;19908;-67
2022/02/05 16:39:59;;;;;;;;;;;7.30;99.90;;;;;;5117438;28;19907;-68
2022/02/05 16:42:26;;;;;;;;;;;7.30;99.90;;;;;;5117535;28;20318;-66
2022/02/05 16:44:52;;;;;;;;;;;7.30;99.90;;;;;;5116827;28;19903;-66
2022/02/05 16:47:17;;;;;;;;;;;7.30;99.90;;;;;;5117092;28;19910;-67
2022/02/05 16:49:43;;;;;;;;;;;7.20;99.90;;;;;;5117095;28;19969;-67
2022/02/05 16:52:08;;;;;;;;;;;7.20;99.90;;;;;;5116941;28;19904;-68
2022/02/05 16:54:34;;;;;;;;;;;7.20;99.90;;;;;;5116936;28;19918;-67
2022/02/05 16:57:00;;;;;;;;;;;7.30;99.90;;;;;;5117348;28;19904;-67
2022/02/05 16:59:25;;;;;;;;;;;7.20;99.90;;;;;;5115821;28;19912;-67
2022/02/05 17:01:51;;;;;;;;;;;7.20;99.90;;;;;;5116803;28;19904;-69
2022/02/05 17:04:18;;;;;;;;;;;7.10;99.90;;;;;;5117482;28;19946;-69
2022/02/05 17:06:43;;;;;;;;;;;7.10;99.90;;;;;;5115945;28;19904;-70
2022/02/05 17:09:11;;;;;;;;;;;7.20;99.90;;;;;;5115865;28;19904;-66
2022/02/05 17:11:37;;;;;;;;;;;7.20;99.90;;;;;;5116826;28;20316;-68
2022/02/05 17:14:02;;;;;;;;;;;7.20;99.90;;;;;;5115315;28;19904;-69
2022/02/05 17:16:31;;;;;;;;;;;7.20;99.90;;;;;;5115332;28;19908;-67
2022/02/05 17:18:57;;;;;;;;;;;7.10;99.90;;;;;;5116810;27;20388;-67
2022/02/05 17:21:22;;;;;;;;;;;7.20;99.90;;;;;;5116826;28;19946;-68
2022/02/05 17:23:48;;;;;;;;;;;7.10;99.90;;;;;;5117470;28;19994;-68
2022/02/05 17:26:16;;;;;;;;;;;7.10;99.90;;;;;;5117119;28;19987;-68
2022/02/05 17:28:45;;;;;;;;;;;7.10;99.90;;;;;;5116390;28;19994;-67
2022/02/05 17:31:11;;;;;;;;;;;7.10;99.90;;;;;;5116235;28;19946;-68
2022/02/05 17:33:36;;;;;;;;;;;7.10;99.90;;;;;;5115834;28;19904;-68
2022/02/05 17:36:03;;;;;;;;;;;7.00;99.90;;;;;;5116363;28;19949;-66